Time;durP1;ratioP1;P1;durP2;ratioP2;P2;SDS_P1;SDS_P2;PMS_P1;PMS_P2;Temp;Humidity;BMP_temperature;BMP_pressure;BME280_temperature;BME280_humidity;BME280_pressure;Samples;Min_cycle;Max_cycle;Signal;HPM_P1;HPM_P2
2023/09/20 00:00:12;;;;;;;7.32;3.05;;;;;;;16.88;100.00;100583.19;5062921;28;20040;-82
2023/09/20 00:02:40;;;;;;;6.15;3.08;;;;;;;16.86;100.00;100592.09;5062872;28;20036;-82
2023/09/20 00:05:15;;;;;;;6.65;2.20;;;;;;;16.89;100.00;100593.25;5048740;28;20016;-83
2023/09/20 00:07:41;;;;;;;5.22;2.80;;;;;;;16.88;100.00;100594.50;5050362;28;20028;-82
2023/09/20 00:10:12;;;;;;;8.32;2.42;;;;;;;16.91;100.00;100590.81;5067762;28;20609;-82
2023/09/20 00:12:39;;;;;;;7.28;2.65;;;;;;;16.94;100.00;100596.41;5042086;28;20028;-83
2023/09/20 00:15:06;;;;;;;13.40;3.88;;;;;;;16.94;100.00;100587.13;5054972;28;20044;-88
2023/09/20 00:17:34;;;;;;;9.30;3.17;;;;;;;16.92;100.00;100583.94;5038977;28;20028;-87
2023/09/20 00:20:13;;;;;;;9.20;3.05;;;;;;;16.93;100.00;100585.53;5054395;28;20032;-87
2023/09/20 00:22:45;;;;;;;19.20;3.38;;;;;;;16.96;100.00;100596.00;5067198;28;20032;-87
2023/09/20 00:25:12;;;;;;;7.50;3.40;;;;;;;16.98;100.00;100582.22;5046918;28;20388;-82
2023/09/20 00:27:39;;;;;;;5.05;2.47;;;;;;;16.94;100.00;100579.44;5050069;28;20025;-82
2023/09/20 00:30:10;;;;;;;7.15;2.63;;;;;;;16.95;100.00;100583.88;5067095;28;20048;-82
2023/09/20 00:32:42;;;;;;;7.22;2.38;;;;;;;16.97;100.00;100578.59;5045657;28;20119;-83
2023/09/20 00:35:11;;;;;;;;;;;;;;;17.05;100.00;100584.91;5069501;28;20021;-89
2023/09/20 00:37:41;;;;;;;7.22;3.10;;;;;;;17.02;100.00;100595.06;5071229;28;20240;-88
2023/09/20 00:40:15;;;;;;;8.70;3.42;;;;;;;16.98;100.00;100576.56;5069122;28;20104;-88
2023/09/20 00:42:49;;;;;;;8.65;3.63;;;;;;;17.02;100.00;100583.75;5062724;28;20516;-88
2023/09/20 00:45:15;;;;;;;7.95;2.83;;;;;;;17.04;100.00;100574.84;5050678;28;20047;-88
2023/09/20 00:47:51;;;;;;;7.82;3.13;;;;;;;17.04;100.00;100580.50;5050330;28;20442;-88
2023/09/20 00:50:16;;;;;;;8.20;3.85;;;;;;;17.00;100.00;100574.13;5054047;28;20036;-88
2023/09/20 00:52:44;;;;;;;8.13;2.63;;;;;;;17.06;100.00;100578.06;5067317;28;20040;-88
2023/09/20 00:55:18;;;;;;;7.18;2.53;;;;;;;17.04;100.00;100580.50;5064546;28;20029;-88
2023/09/20 00:57:45;;;;;;;5.78;2.95;;;;;;;17.04;100.00;100584.13;5066471;28;20066;-88
2023/09/20 01:00:14;;;;;;;8.35;2.67;;;;;;;17.02;100.00;100566.78;5046951;28;20032;-88
2023/09/20 01:02:40;;;;;;;8.48;2.67;;;;;;;17.01;100.00;100568.03;5048414;28;20487;-87
2023/09/20 01:05:06;;;;;;;6.10;3.42;;;;;;;17.07;100.00;100569.13;5048153;28;20037;-88
2023/09/20 01:07:31;;;;;;;8.18;2.70;;;;;;;17.04;100.00;100566.38;5043526;28;20373;-87
2023/09/20 01:09:57;;;;;;;8.68;3.67;;;;;;;17.06;100.00;100576.00;5066881;28;20374;-88
2023/09/20 01:12:22;;;;;;;9.60;3.03;;;;;;;17.04;100.00;100557.88;5066649;28;20166;-88
2023/09/20 01:14:49;;;;;;;7.03;2.53;;;;;;;17.02;100.00;100543.38;5066935;28;20118;-88
2023/09/20 01:17:14;;;;;;;8.52;3.00;;;;;;;17.09;100.00;100565.88;5049113;28;20059;-86
2023/09/20 01:19:40;;;;;;;12.10;3.10;;;;;;;17.10;100.00;100570.31;5069224;28;20497;-88
2023/09/20 01:22:05;;;;;;;8.23;3.03;;;;;;;17.10;100.00;100561.81;5051790;28;20028;-87
2023/09/20 01:24:33;;;;;;;8.13;2.70;;;;;;;17.00;100.00;100569.25;5062355;28;20028;-89
2023/09/20 01:27:03;;;;;;;9.45;2.58;;;;;;;17.00;100.00;100579.78;5047676;28;20024;-89
2023/09/20 01:29:29;;;;;;;7.95;2.50;;;;;;;17.03;100.00;100576.88;5063582;28;20041;-85
2023/09/20 01:32:00;;;;;;;4.50;2.17;;;;;;;17.04;100.00;100574.84;5062183;28;20659;-88
2023/09/20 01:34:26;;;;;;;6.28;2.63;;;;;;;17.05;100.00;100563.13;5062873;28;20056;-88
2023/09/20 01:36:51;;;;;;;10.23;2.42;;;;;;;17.07;100.00;100568.31;5041383;28;20123;-86
2023/09/20 01:39:17;;;;;;;6.28;2.17;;;;;;;17.06;100.00;100561.88;5048431;28;20126;-88
2023/09/20 01:41:44;;;;;;;10.07;3.00;;;;;;;17.06;100.00;100563.91;5063254;28;20027;-88
2023/09/20 01:44:10;;;;;;;7.07;2.30;;;;;;;17.06;100.00;100563.91;5044095;28;20029;-87
2023/09/20 01:46:36;;;;;;;4.82;2.88;;;;;;;17.04;100.00;100569.19;5059662;28;20029;-88
2023/09/20 01:49:05;;;;;;;7.35;2.75;;;;;;;17.00;100.00;100562.81;5046594;28;20024;-88
2023/09/20 01:51:30;;;;;;;9.27;2.65;;;;;;;17.02;100.00;100572.44;5068889;28;20169;-89
2023/09/20 01:53:56;;;;;;;7.57;1.92;;;;;;;17.03;100.00;100559.09;5049207;28;20095;-89
2023/09/20 01:56:23;;;;;;;8.73;2.80;;;;;;;17.00;100.00;100562.81;5051233;28;20021;-87
2023/09/20 01:58:50;;;;;;;5.82;2.55;;;;;;;16.98;100.00;100560.41;5047838;28;20038;-88
2023/09/20 02:01:17;;;;;;;6.65;2.63;;;;;;;17.03;100.00;100567.59;5045206;28;20052;-88
2023/09/20 02:03:43;;;;;;;7.35;2.40;;;;;;;17.02;100.00;100555.47;5048174;28;20039;-88
2023/09/20 02:06:08;;;;;;;6.43;2.45;;;;;;;17.05;100.00;100565.94;5065190;28;20040;-87
2023/09/20 02:08:34;;;;;;;7.22;2.15;;;;;;;17.03;100.00;100556.28;5046895;28;20362;-89
2023/09/20 02:10:59;;;;;;;7.97;2.75;;;;;;;17.01;100.00;100558.72;5044637;28;20028;-86
2023/09/20 02:13:25;;;;;;;7.00;2.75;;;;;;;17.00;100.00;100563.59;5059395;28;20087;-88
2023/09/20 02:15:52;;;;;;;9.27;2.35;;;;;;;16.99;100.00;100561.19;5031553;28;20470;-88
2023/09/20 02:18:17;;;;;;;8.85;2.60;;;;;;;17.01;100.00;100553.91;5032892;28;20039;-87
2023/09/20 02:20:44;;;;;;;10.07;2.83;;;;;;;17.00;100.00;100554.31;5048198;28;20119;-88
2023/09/20 02:23:13;;;;;;;9.35;2.90;;;;;;;17.01;100.00;100561.56;5028176;28;20033;-88
2023/09/20 02:25:40;;;;;;;9.27;2.92;;;;;;;16.97;100.00;100555.16;5045845;28;20082;-88
2023/09/20 02:28:07;;;;;;;6.63;2.78;;;;;;;17.00;100.00;100562.81;5033053;28;20074;-87
2023/09/20 02:30:36;;;;;;;11.35;2.65;;;;;;;16.97;100.00;100561.63;5031981;28;20024;-89
2023/09/20 02:33:06;;;;;;;6.85;2.42;;;;;;;16.89;100.00;100546.03;5025540;28;20465;-88
2023/09/20 02:35:32;;;;;;;10.27;3.22;;;;;;;16.99;100.00;100567.66;5035045;28;20493;-86
2023/09/20 02:37:59;;;;;;;6.45;2.80;;;;;;;17.01;100.00;100570.03;5028756;28;20452;-87
2023/09/20 02:40:27;;;;;;;8.02;3.17;;;;;;;16.97;100.00;100558.00;5046210;28;20032;-88
2023/09/20 02:42:54;;;;;;;8.63;3.35;;;;;;;16.97;100.00;100561.63;5030539;28;20480;-88
2023/09/20 02:45:22;;;;;;;9.20;2.85;;;;;;;16.99;100.00;100555.53;5044874;28;20035;-88
2023/09/20 02:47:48;;;;;;;8.35;2.85;;;;;;;16.99;100.00;100550.69;5030073;28;20025;-89
2023/09/20 02:50:19;;;;;;;9.25;3.15;;;;;;;16.96;100.00;100537.41;5037361;28;20028;-89
2023/09/20 02:52:46;;;;;;;9.07;2.47;;;;;;;16.96;100.00;100542.28;5030535;28;20025;-85
2023/09/20 02:55:13;;;;;;;7.32;2.85;;;;;;;16.88;100.00;100538.75;5047345;28;20741;-88
2023/09/20 02:57:42;;;;;;;8.73;2.38;;;;;;;16.95;100.00;100549.13;5033032;28;20469;-88
2023/09/20 03:00:15;;;;;;;12.27;3.58;;;;;;;16.89;100.00;100539.56;5023299;28;20037;-88
2023/09/20 03:02:45;;;;;;;4.55;2.60;;;;;;;16.87;100.00;100525.88;5031075;28;20060;-88
2023/09/20 03:05:25;;;;;;;6.10;3.03;;;;;;;16.82;100.00;100524.34;5027101;28;20443;-87
2023/09/20 03:07:51;;;;;;;11.18;3.22;;;;;;;16.81;100.00;100522.72;5050501;28;20525;-84
2023/09/20 03:10:21;;;;;;;7.38;3.00;;;;;;;16.81;100.00;100517.06;5046099;28;20036;-88
2023/09/20 03:12:48;;;;;;;7.43;2.92;;;;;;;16.81;100.00;100505.75;5050440;28;20032;-88
2023/09/20 03:15:17;;;;;;;8.93;2.53;;;;;;;16.82;100.00;100507.38;5062534;28;20046;-89
2023/09/20 03:17:50;;;;;;;7.70;3.13;;;;;;;16.76;100.00;100497.75;5060190;28;20569;-89
2023/09/20 03:20:22;;;;;;;7.75;2.97;;;;;;;16.77;100.00;100507.81;5060594;28;20856;-88
2023/09/20 03:22:49;;;;;;;8.50;2.60;;;;;;;16.71;100.00;100512.38;5064299;28;20029;-87
2023/09/20 03:25:16;;;;;;;7.95;2.72;;;;;;;16.68;100.00;100493.44;5065563;28;20807;-89
2023/09/20 03:27:43;;;;;;;3.80;2.30;;;;;;;16.58;100.00;100480.28;5048794;28;20125;-89
2023/09/20 03:30:11;;;;;;;8.27;2.78;;;;;;;16.71;100.00;100506.72;5049237;28;20029;-89
2023/09/20 03:32:39;;;;;;;6.70;2.92;;;;;;;16.63;100.00;100488.28;5042393;28;20031;-90
2023/09/20 03:35:06;;;;;;;6.13;3.22;;;;;;;16.61;100.00;100493.56;5065194;28;20016;-88
2023/09/20 03:37:32;;;;;;;10.55;2.70;;;;;;;16.67;100.00;100501.13;5063203;28;20032;-89
2023/09/20 03:39:58;;;;;;;4.95;2.70;;;;;;;16.65;100.00;100508.44;5061565;28;20059;-88
2023/09/20 03:42:24;;;;;;;7.55;2.78;;;;;;;16.61;100.00;100507.69;5067784;28;20036;-89
2023/09/20 03:44:50;;;;;;;4.80;2.58;;;;;;;16.60;100.00;100483.50;5052398;28;20128;-88
2023/09/20 03:47:16;;;;;;;6.10;2.33;;;;;;;16.63;100.00;100499.56;5064504;28;20174;-89
2023/09/20 03:49:42;;;;;;;5.80;2.58;;;;;;;16.62;100.00;100483.88;5051329;28;20035;-89
2023/09/20 03:52:08;;;;;;;9.88;2.80;;;;;;;16.60;100.00;100484.28;5045504;28;20036;-87
2023/09/20 03:54:33;;;;;;;7.13;2.78;;;;;;;16.64;100.00;100501.19;5062845;28;20107;-88
2023/09/20 03:56:59;;;;;;;7.60;2.53;;;;;;;16.59;100.00;100487.53;5059951;28;20084;-88
2023/09/20 03:59:26;;;;;;;5.60;2.30;;;;;;;16.58;100.00;100491.59;5060199;28;20237;-89
2023/09/20 04:01:52;;;;;;;6.07;2.60;;;;;;;16.58;100.00;100489.56;5046179;28;20678;-87
2023/09/20 04:04:17;;;;;;;8.30;3.97;;;;;;;16.60;100.00;100486.31;5066464;28;20020;-84
2023/09/20 04:06:44;;;;;;;4.72;2.30;;;;;;;16.55;100.00;100486.78;5066371;28;20073;-88
2023/09/20 04:09:10;;;;;;;12.15;2.50;;;;;;;16.55;100.00;100481.13;5067765;28;20028;-88
2023/09/20 04:11:40;;;;;;;10.52;3.50;;;;;;;16.58;100.00;100471.81;5063246;28;20047;-84
2023/09/20 04:14:10;;;;;;;12.43;2.60;;;;;;;16.52;100.00;100482.81;5045264;28;20048;-87
2023/09/20 04:16:40;;;;;;;8.57;3.05;;;;;;;16.60;100.00;100484.28;5025980;28;20055;-88
2023/09/20 04:19:06;;;;;;;8.77;2.28;;;;;;;16.57;100.00;100478.69;5046409;28;20028;-88
2023/09/20 04:21:32;;;;;;;6.90;3.00;;;;;;;16.56;100.00;100468.63;5031732;28;20087;-88
2023/09/20 04:23:59;;;;;;;8.23;2.53;;;;;;;16.56;100.00;100460.16;5034390;28;20033;-88
2023/09/20 04:26:24;;;;;;;6.07;2.47;;;;;;;16.50;100.00;100461.88;5022369;28;20056;-89
2023/09/20 04:28:50;;;;;;;7.13;3.38;;;;;;;16.51;100.00;100458.63;5048786;28;20057;-89
2023/09/20 04:31:16;;;;;;;10.10;2.80;;;;;;;16.50;100.00;100457.00;5029644;28;20758;-89
2023/09/20 04:33:41;;;;;;;4.65;2.30;;;;;;;16.51;100.00;100458.63;5027864;28;20288;-85
2023/09/20 04:36:06;;;;;;;7.80;3.20;;;;;;;16.48;100.00;100453.81;5038149;28;20024;-88
2023/09/20 04:38:32;;;;;;;8.27;3.10;;;;;;;16.46;100.00;100468.38;5029565;28;20134;-89
2023/09/20 04:40:59;;;;;;;3.45;2.45;;;;;;;16.44;100.00;100456.72;5047877;28;20121;-90
2023/09/20 04:43:25;;;;;;;7.88;3.42;;;;;;;16.43;100.00;100459.97;5044286;28;20087;-87
2023/09/20 04:45:50;;;;;;;8.55;2.67;;;;;;;16.44;100.00;100470.84;5026666;28;20266;-89
2023/09/20 04:48:16;;;;;;;6.85;2.00;;;;;;;16.37;100.00;100459.63;5036708;28;20610;-90
2023/09/20 04:50:41;;;;;;;4.97;2.72;;;;;;;16.43;100.00;100474.09;5048855;28;20028;-87
2023/09/20 04:53:06;;;;;;;4.45;2.42;;;;;;;16.43;100.00;100468.44;5029070;28;20028;-88
2023/09/20 04:55:34;;;;;;;6.07;2.33;;;;;;;16.38;100.00;100458.44;5032043;28;20032;-89
2023/09/20 04:58:00;;;;;;;5.15;2.10;;;;;;;16.40;100.00;100457.97;5027410;28;20128;-90
2023/09/20 05:00:33;;;;;;;5.85;2.83;;;;;;;16.36;100.00;100458.06;5024420;28;20035;-90
2023/09/20 05:02:59;;;;;;;5.00;2.60;;;;;;;16.37;100.00;100464.50;5039931;28;20090;-89
2023/09/20 05:05:25;;;;;;;6.85;2.20;;;;;;;16.38;100.00;100466.91;5032422;28;20033;-89
2023/09/20 05:07:52;;;;;;;7.30;2.47;;;;;;;16.39;100.00;100464.88;5026782;28;20119;-84
2023/09/20 05:10:17;;;;;;;6.32;2.60;;;;;;;16.39;100.00;100464.88;5041502;28;20445;-89
2023/09/20 05:12:43;;;;;;;4.90;1.97;;;;;;;16.37;100.00;100462.47;4985214;28;1593265;-90
2023/09/20 05:15:12;;;;;;;3.92;1.83;;;;;;;16.29;100.00;100468.66;5023713;28;22802;-86
2023/09/20 05:17:37;;;;;;;11.55;2.55;;;;;;;16.30;100.00;100454.13;5020675;28;20481;-85
2023/09/20 05:20:04;;;;;;;4.57;1.98;;;;;;;16.30;100.00;100459.75;5031464;28;20028;-90
2023/09/20 05:22:30;;;;;;;6.35;2.13;;;;;;;16.25;100.00;100457.41;5048398;28;20116;-88
2023/09/20 05:24:57;;;;;;;7.63;3.03;;;;;;;16.29;100.00;100458.16;5029645;28;20135;-90
2023/09/20 05:27:23;;;;;;;6.13;2.47;;;;;;;16.22;100.00;100452.63;5041644;28;20024;-88
2023/09/20 05:29:50;;;;;;;5.70;3.15;;;;;;;16.20;100.00;100449.44;5041469;28;20032;-89
2023/09/20 05:32:16;;;;;;;5.40;2.78;;;;;;;16.19;100.00;100447.81;5029156;28;20405;-89
2023/09/20 05:34:46;;;;;;;7.72;3.97;;;;;;;16.09;100.00;100432.66;5041800;28;20170;-88
2023/09/20 05:37:11;;;;;;;6.03;2.92;;;;;;;16.10;100.00;100439.09;5044687;28;20481;-89
2023/09/20 05:39:37;;;;;;;4.72;2.97;;;;;;;16.01;100.00;100443.25;5045694;28;20041;-87
2023/09/20 05:42:03;;;;;;;4.10;2.67;;;;;;;16.12;100.00;100445.13;5045152;28;20059;-89
2023/09/20 05:44:30;;;;;;;6.20;2.25;;;;;;;16.17;100.00;100444.63;5027152;28;20116;-88
2023/09/20 05:46:55;;;;;;;4.82;2.00;;;;;;;16.32;100.00;100450.84;5045386;28;20032;-84
2023/09/20 05:49:22;;;;;;;7.35;2.25;;;;;;;16.45;100.00;100455.47;5023594;28;21330;-92
2023/09/20 05:51:50;;;;;;;4.38;2.25;;;;;;;16.32;100.00;100446.00;5041605;28;20221;-92
2023/09/20 05:54:19;;;;;;;4.32;2.08;;;;;;;16.17;100.00;100444.63;5046032;28;20029;-92
2023/09/20 05:56:45;;;;;;;5.93;2.30;;;;;;;16.21;100.00;100454.66;5047759;28;20139;-94
2023/09/20 05:59:11;;;;;;;6.00;2.42;;;;;;;16.23;100.00;100454.22;5034225;28;20496;-95
2023/09/20 06:01:40;;;;;;;6.30;3.60;;;;;;;16.17;100.00;100458.75;5039825;28;20025;-91
2023/09/20 06:04:09;;;;;;;8.13;3.53;;;;;;;16.17;100.00;100459.56;5049111;28;20037;-93
2023/09/20 06:06:37;;;;;;;7.72;2.58;;;;;;;16.19;100.00;100464.75;5029053;28;20032;-93
2023/09/20 06:09:03;;;;;;;6.53;2.83;;;;;;;16.25;100.00;100465.88;5032255;28;20032;-95
2023/09/20 06:11:28;;;;;;;7.38;2.70;;;;;;;16.26;100.00;100464.66;5031582;28;20033;-94
2023/09/20 06:13:54;;;;;;;8.38;2.78;;;;;;;16.28;100.00;100467.88;5033654;28;20041;-93
2023/09/20 06:16:20;;;;;;;4.97;2.92;;;;;;;16.29;100.00;100465.84;5045920;28;20648;-94
2023/09/20 06:18:47;;;;;;;7.15;3.60;;;;;;;16.19;100.00;100436.53;5051110;28;20473;-95
2023/09/20 06:21:14;;;;;;;7.05;2.88;;;;;;;16.29;100.00;100455.34;5049188;28;20400;-94
2023/09/20 06:23:40;;;;;;;10.45;4.20;;;;;;;16.26;100.00;100453.38;5045691;28;20035;-92
2023/09/20 06:26:26;;;;;;;5.05;2.65;;;;;;;16.23;100.00;100452.22;5072728;28;20370;-93
2023/09/20 06:28:51;;;;;;;7.75;2.92;;;;;;;16.21;100.00;100445.38;5072715;28;20040;-90
2023/09/20 06:31:18;;;;;;;7.22;2.90;;;;;;;16.29;100.00;100460.97;5051963;28;20083;-92
2023/09/20 06:33:43;;;;;;;8.57;3.03;;;;;;;16.26;100.00;100442.06;5048958;28;20885;-90
2023/09/20 06:36:15;;;;;;;11.30;3.40;;;;;;;16.42;100.00;100456.34;5048252;28;20025;-86
2023/09/20 06:38:42;;;;;;;12.45;3.45;;;;;;;16.77;100.00;100471.06;5061148;28;20033;-84
2023/09/20 06:41:08;;;;;;;7.78;2.92;;;;;;;16.71;100.00;100469.97;5046093;28;20468;-85
2023/09/20 06:43:33;;;;;;;4.28;2.75;;;;;;;16.69;100.00;100474.47;5047763;28;20393;-84
2023/09/20 06:46:02;;;;;;;6.38;2.80;;;;;;;16.64;100.00;100462.41;5068526;28;20024;-85
2023/09/20 06:48:29;;;;;;;6.75;2.75;;;;;;;16.65;100.00;100468.88;5058955;28;20030;-85
2023/09/20 06:50:55;;;;;;;3.47;2.00;;;;;;;16.64;100.00;100464.47;5062691;28;20029;-86
2023/09/20 06:53:23;;;;;;;7.32;2.85;;;;;;;16.74;100.00;100477.59;5052424;28;20554;-86
2023/09/20 06:55:50;;;;;;;8.07;2.65;;;;;;;16.78;100.00;100477.53;5045389;28;20082;-86
2023/09/20 06:58:16;;;;;;;6.72;2.85;;;;;;;16.80;100.00;100458.97;5047367;28;20041;-86
2023/09/20 07:00:41;;;;;;;9.90;2.63;;;;;;;16.82;100.00;100459.31;5047508;28;20059;-84
2023/09/20 07:03:09;;;;;;;5.63;2.88;;;;;;;16.85;100.00;100466.94;5043017;28;20056;-85
2023/09/20 07:05:34;;;;;;;5.60;2.47;;;;;;;16.91;100.00;100463.59;5044729;28;20029;-85
2023/09/20 07:08:01;;;;;;;5.00;2.65;;;;;;;16.97;100.00;100461.88;5048991;28;20059;-85
2023/09/20 07:10:33;;;;;;;8.93;2.90;;;;;;;16.94;100.00;100457.88;5046094;28;20374;-85
2023/09/20 07:13:00;;;;;;;4.75;2.72;;;;;;;17.04;100.00;100470.22;5044500;28;20041;-85
2023/09/20 07:15:27;;;;;;;5.28;3.58;;;;;;;17.03;100.00;100454.47;5034061;28;20105;-85
2023/09/20 07:17:59;;;;;;;5.43;2.63;;;;;;;17.04;100.00;100456.09;5050045;28;20135;-86
2023/09/20 07:20:25;;;;;;;5.15;2.47;;;;;;;17.04;100.00;100458.91;5047170;28;20029;-85
2023/09/20 07:22:53;;;;;;;4.10;3.00;;;;;;;17.16;100.00;100469.59;5031258;28;20072;-85
2023/09/20 07:25:19;;;;;;;7.43;3.58;;;;;;;17.06;100.00;100456.47;5036000;28;20029;-86
2023/09/20 07:27:48;;;;;;;6.43;2.88;;;;;;;17.13;100.00;100464.78;5025358;28;20436;-85
2023/09/20 07:30:18;;;;;;;5.97;2.10;;;;;;;17.19;100.00;100468.72;5033314;28;20041;-84
2023/09/20 07:32:52;;;;;;;5.75;2.13;;;;;;;17.13;100.00;100461.19;5028011;28;20033;-86
2023/09/20 07:36:00;;;;;;;7.40;2.67;;;;;;;17.14;100.00;100455.09;5047604;28;20028;-85
2023/09/20 07:38:22;;;;;;;5.35;2.75;;;;;;;17.21;100.00;100456.97;5038519;28;20052;-86
2023/09/20 07:40:50;;;;;;;6.13;3.10;;;;;;;17.26;100.00;100462.13;5028789;28;20122;-86
2023/09/20 07:43:19;;;;;;;7.55;3.78;;;;;;;17.34;100.00;100468.44;5027613;28;20120;-86
2023/09/20 07:45:45;;;;;;;5.35;2.70;;;;;;;17.33;100.00;100461.19;5029413;28;20040;-95
2023/09/20 07:48:21;;;;;;;6.05;3.35;;;;;;;17.33;100.00;100469.66;5056432;28;20133;-96
2023/09/20 07:50:49;;;;;;;4.93;2.60;;;;;;;17.38;100.00;100474.84;5041167;28;20119;-93
2023/09/20 07:53:16;;;;;;;7.90;3.40;;;;;;;17.29;100.00;100455.63;5042465;28;20052;-94
2023/09/20 07:55:44;;;;;;;6.47;2.72;;;;;;;17.41;100.00;100468.28;5043186;28;20020;-91
2023/09/20 07:58:11;;;;;;;8.07;2.60;;;;;;;17.28;100.00;100457.63;5031363;28;20045;-91
2023/09/20 08:00:56;;;;;;;6.03;2.78;;;;;;;17.36;100.00;100449.00;5038694;28;20109;-93
2023/09/20 08:03:25;;;;;;;7.40;2.85;;;;;;;17.49;100.00;100469.75;5027456;28;20025;-92
2023/09/20 08:05:52;;;;;;;5.50;3.33;;;;;;;17.43;100.00;100448.84;5034921;28;20923;-93
2023/09/20 08:08:18;;;;;;;5.50;2.30;;;;;;;17.45;100.00;100466.19;5030291;28;20053;-92
2023/09/20 08:10:44;;;;;;;5.55;3.33;;;;;;;17.58;100.00;100477.66;5029697;28;20048;-91
2023/09/20 08:13:11;;;;;;;4.55;3.10;;;;;;;17.53;100.00;100486.66;5031812;28;20081;-91
2023/09/20 08:15:42;;;;;;;6.72;2.90;;;;;;;17.48;100.00;100477.44;5028623;28;20389;-93
2023/09/20 08:20:53;;;;;;;4.63;2.58;;;;;;;17.50;100.00;100488.34;5053615;28;20090;-93
2023/09/20 09:01:44;;;;;;;5.07;2.83;;;;;;;17.86;100.00;100508.22;5046596;28;20087;-86
2023/09/20 09:04:12;;;;;;;4.35;2.05;;;;;;;17.89;100.00;100503.72;5033893;28;20086;-85
2023/09/20 09:06:38;;;;;;;4.03;2.10;;;;;;;17.75;100.00;100498.31;5050753;28;20108;-85
2023/09/20 09:09:03;;;;;;;7.00;1.92;;;;;;;17.82;100.00;100509.50;5044946;28;20615;-85
2023/09/20 09:11:29;;;;;;;4.93;2.20;;;;;;;17.87;100.00;100511.84;5033830;28;20036;-86
2023/09/20 09:13:58;;;;;;;5.88;2.08;;;;;;;17.86;100.00;100511.06;5027752;28;20056;-86
2023/09/20 09:16:26;;;;;;;3.22;1.83;;;;;;;17.86;100.00;100493.28;5025809;28;20045;-85
2023/09/20 09:18:53;;;;;;;6.75;2.08;;;;;;;17.99;100.00;100502.69;5049173;28;20492;-85
2023/09/20 09:21:19;;;;;;;3.30;2.17;;;;;;;17.99;100.00;100497.00;5044558;28;20452;-85
2023/09/20 09:23:47;;;;;;;3.55;1.95;;;;;;;17.97;100.00;100499.47;5048371;28;20186;-86
2023/09/20 09:26:13;;;;;;;4.30;2.08;;;;;;;17.96;100.00;100485.75;5026770;28;20404;-85
2023/09/20 09:28:44;;;;;;;3.83;1.50;;;;;;;18.02;100.00;100498.97;5042411;28;20024;-85
2023/09/20 09:31:09;;;;;;;5.65;2.08;;;;;;;17.98;100.00;100483.28;5033044;28;20025;-87
2023/09/20 09:33:38;;;;;;;3.78;1.90;;;;;;;17.92;100.00;100479.38;5043504;28;20385;-87
2023/09/20 09:36:04;;;;;;;7.45;2.42;;;;;;;17.97;100.00;100482.50;5031199;28;20025;-86
2023/09/20 09:38:32;;;;;;;3.83;1.95;;;;;;;18.08;100.00;100485.88;5032433;28;20155;-86
2023/09/20 09:40:58;;;;;;;7.05;2.25;;;;;;;18.10;100.00;100481.81;5022913;28;20035;-86
2023/09/20 09:43:26;;;;;;;4.63;2.20;;;;;;;18.10;100.00;100470.50;5028444;28;20511;-86
2023/09/20 09:46:00;;;;;;;4.88;1.63;;;;;;;18.21;100.00;100497.31;5027698;28;20021;-85
2023/09/20 09:48:29;;;;;;;4.32;2.65;;;;;;;18.10;100.00;100471.28;5031931;28;20025;-86
2023/09/20 09:50:57;;;;;;;7.53;2.38;;;;;;;18.24;100.00;100479.44;5030051;28;20087;-87
2023/09/20 09:53:24;;;;;;;4.10;2.03;;;;;;;18.07;100.00;100461.63;5024494;28;20029;-87
2023/09/20 09:55:51;;;;;;;8.95;2.20;;;;;;;18.27;100.00;100460.75;5030192;28;20033;-86
2023/09/20 09:58:16;;;;;;;7.15;2.00;;;;;;;18.22;100.00;100449.97;5043694;28;20074;-85
2023/09/20 10:00:48;;;;;;;5.18;2.10;;;;;;;18.34;100.00;100463.44;5033973;28;20417;-85
2023/09/20 10:03:25;;;;;;;9.13;2.88;;;;;;;18.29;100.00;100463.97;5029267;28;20041;-86
2023/09/20 10:06:00;;;;;;;5.00;1.48;;;;;;;18.31;100.00;100481.31;5030942;28;20047;-85
2023/09/20 10:08:29;;;;;;;5.20;3.25;;;;;;;18.24;100.00;100458.81;5015069;28;20086;-86
2023/09/20 10:10:59;;;;;;;2.40;2.15;;;;;;;18.24;100.00;100481.50;5026063;28;20029;-86
2023/09/20 10:13:28;;;;;;;5.10;1.83;;;;;;;18.15;100.00;100476.44;5048630;28;20049;-86
2023/09/20 10:15:55;;;;;;;3.63;1.90;;;;;;;18.23;100.00;100479.88;5059866;28;20021;-86
2023/09/20 10:18:21;;;;;;;3.22;1.88;;;;;;;18.18;100.00;100475.53;5047683;28;20447;-85
2023/09/20 10:20:58;;;;;;;3.70;1.92;;;;;;;18.16;100.00;100474.41;5030705;28;20021;-85
2023/09/20 10:23:24;;;;;;;5.32;2.25;;;;;;;18.17;100.00;100473.16;5041033;28;20390;-85
2023/09/20 10:25:49;;;;;;;4.32;2.28;;;;;;;18.23;100.00;100491.22;5062983;28;20547;-84
2023/09/20 10:28:17;;;;;;;3.47;1.98;;;;;;;18.17;100.00;100475.97;5045127;28;20028;-87
2023/09/20 10:31:01;;;;;;;4.32;1.77;;;;;;;18.21;100.00;100488.03;5043469;28;20143;-87
2023/09/20 10:33:43;;;;;;;4.10;1.90;;;;;;;18.24;100.00;100490.78;5056618;28;20060;-86
2023/09/20 10:36:31;;;;;;;4.10;1.95;;;;;;;18.22;100.00;100487.59;5045199;28;20052;-85
2023/09/20 10:39:18;;;;;;;3.13;2.17;;;;;;;18.23;100.00;100486.34;5044146;28;20051;-86
2023/09/20 10:41:44;;;;;;;2.95;1.80;;;;;;;18.22;100.00;100483.97;5059072;28;20033;-87
2023/09/20 10:44:35;;;;;;;5.93;2.25;;;;;;;18.25;100.00;100492.34;5045227;28;20024;-87
2023/09/20 10:47:16;;;;;;;5.00;2.20;;;;;;;18.14;100.00;100474.03;5045748;28;20033;-85
2023/09/20 10:49:47;;;;;;;4.80;1.80;;;;;;;18.29;100.00;100489.44;5047876;28;20029;-85
2023/09/20 10:52:33;;;;;;;3.10;2.67;;;;;;;18.28;100.00;100480.16;5064843;28;20029;-85
2023/09/20 10:55:22;;;;;;;2.30;1.70;;;;;;;18.33;100.00;100470.34;5049700;28;20382;-86
2023/09/20 10:57:49;;;;;;;4.63;2.38;;;;;;;18.28;100.00;100465.22;5046101;28;20035;-84
2023/09/20 11:00:14;;;;;;;3.85;1.98;;;;;;;18.37;100.00;100465.38;5048257;28;20486;-85
2023/09/20 11:02:42;;;;;;;4.53;2.15;;;;;;;18.35;100.00;100456.53;5063189;28;20106;-87
2023/09/20 11:05:11;;;;;;;5.93;2.55;;;;;;;18.45;100.00;100466.81;5047822;28;20116;-85
2023/09/20 11:07:39;;;;;;;4.80;1.92;;;;;;;18.53;100.00;100463.78;5059172;28;20083;-85
2023/09/20 11:10:09;;;;;;;5.05;2.22;;;;;;;18.69;100.00;100455.28;5044745;28;20124;-85
2023/09/20 11:12:34;;;;;;;4.22;2.33;;;;;;;18.62;100.00;100441.28;5059327;28;20120;-84
2023/09/20 11:15:01;;;;;;;4.85;2.40;;;;;;;18.72;100.00;100440.22;5044308;28;20136;-85
2023/09/20 11:17:26;;;;;;;4.80;2.45;;;;;;;18.88;100.00;100448.72;5027410;28;20029;-85
2023/09/20 11:19:52;;;;;;;5.03;2.67;;;;;;;18.92;100.00;100456.34;5030429;28;20535;-86
2023/09/20 11:22:20;;;;;;;3.88;3.05;;;;;;;18.99;100.00;100454.09;5044240;28;20035;-86
2023/09/20 11:24:45;;;;;;;5.13;2.38;;;;;;;19.01;100.00;100445.16;5036624;28;20039;-86
2023/09/20 11:27:13;;;;;;;3.97;2.58;;;;;;;19.17;100.00;100453.63;5042705;28;20021;-86
2023/09/20 11:29:43;;;;;;;8.10;3.50;;;;;;;19.17;100.00;100459.28;5028258;28;20036;-85
2023/09/20 11:32:11;;;;;;;4.65;2.78;;;;;;;19.06;100.00;100441.78;5039854;28;20032;-86
2023/09/20 11:34:50;;;;;;;4.35;2.22;;;;;;;19.09;100.00;100440.88;5038569;28;20051;-86
2023/09/20 11:37:20;;;;;;;6.70;2.97;;;;;;;19.05;100.00;100445.84;5029304;28;20482;-86
2023/09/20 11:39:46;;;;;;;4.78;2.85;;;;;;;19.16;100.00;100443.50;5039617;28;20374;-85
2023/09/20 11:42:23;;;;;;;4.72;2.50;;;;;;;19.17;100.00;100433.75;5044138;28;20021;-85
2023/09/20 11:44:56;;;;;;;6.72;2.70;;;;;;;19.40;100.00;100443.25;5038311;28;20087;-87
2023/09/20 11:47:22;;;;;;;4.20;2.50;;;;;;;19.32;100.00;100439.81;5029168;28;20123;-85
2023/09/20 11:49:48;;;;;;;7.30;2.70;;;;;;;19.35;100.00;100441.75;5044340;28;20108;-86
2023/09/20 11:52:17;;;;;;;6.90;2.90;;;;;;;19.39;100.00;100441.66;5027641;28;20033;-85
2023/09/20 11:54:43;;;;;;;7.57;3.08;;;;;;;19.29;100.00;100415.97;5043516;28;20435;-85
2023/09/20 11:57:17;;;;;;;6.90;2.80;;;;;;;19.59;100.00;100425.25;5043675;28;20029;-85
2023/09/20 11:59:43;;;;;;;7.47;2.67;;;;;;;19.78;100.00;100434.06;5032877;28;20029;-87
2023/09/20 12:02:12;;;;;;;9.63;3.83;;;;;;;19.81;100.00;100416.09;5029563;28;20075;-79